LEJR/XRY METAR and TAF weather

Enter ICAO airport designator
Station Type Date Time Source
LEJR METAR 2022/01/19 20:00 UTC NOAA

LEJR 192000Z 16003KT CAVOK 07/04 Q1028


Station Type Date Time Source
LEJR Decoded METAR 2022/01/19 20:00 UTC NOAA

Jerez De La Fronteraaeropuerto, Spain (LEJR) 36-45N 006-04W 28M
Jan 19, 2022 - 03:00 PM EST / 2022.01.19 2000 UTC
Wind: from the SSE (160 degrees) at 3 MPH (3 KT):0
Visibility: greater than 7 mile(s):0
Temperature: 44 F (7 C)
Dew Point: 39 F (4 C)
Relative Humidity: 81%
Pressure (altimeter): 30.36 in. Hg (1028 hPa)
ob: LEJR 192000Z 16003KT CAVOK 07/04 Q1028
cycle: 20

Station Type Date Time Source
LEJR TAF 2022/01/19 15:29 UTC NOAA

TAF LEJR 191400Z 1915/2015 35004KT CAVOK TX18/1915Z TN01/2007Z PROB30
TEMPO 2003/2008 3000 BR

Example: see airport list